Terminal Aerodrome Forecast
Issued by NWS Tampa Bay Area, FL

Home | Current Version | Previous Version | Text Only | Print | Product List | Glossary On
Versions: 1 2 3 4 5 6 7 8 9 10 11 12
000
FTUS42 KTBW 221733
TAFSRQ
TAF
KSRQ 221733Z 2218/2318 13011G17KT P6SM SCT035 BKN200
     FM230000 12009KT P6SM FEW030 BKN200
     FM231500 16012G17KT P6SM VCSH SCT025 BKN040=

USA.gov is the U.S. government's official web portal to all federal, state and local government web resources and services.